sensor_id;sensor_type;location;lat;lon;timestamp;pressure;altitude;pressure_sealevel;temperature;humidity
17362;BME280;8798;51.938;4.348;2023-02-17T00:00:53;101782.34;;;10.62;82.45
17362;BME280;8798;51.938;4.348;2023-02-17T00:03:22;101791.25;;;10.63;82.41
17362;BME280;8798;51.938;4.348;2023-02-17T00:05:52;101778.81;;;10.62;82.55
17362;BME280;8798;51.938;4.348;2023-02-17T00:08:20;101772.81;;;10.58;82.76
17362;BME280;8798;51.938;4.348;2023-02-17T00:10:55;101759.53;;;10.57;82.55
17362;BME280;8798;51.938;4.348;2023-02-17T00:13:23;101760.75;;;10.52;82.90
17362;BME280;8798;51.938;4.348;2023-02-17T00:15:51;101753.69;;;10.51;82.94
17362;BME280;8798;51.938;4.348;2023-02-17T00:18:19;101757.22;;;10.52;82.48
17362;BME280;8798;51.938;4.348;2023-02-17T00:20:47;101757.50;;;10.49;82.80
17362;BME280;8798;51.938;4.348;2023-02-17T00:23:16;101731.84;;;10.45;83.00
17362;BME280;8798;51.938;4.348;2023-02-17T00:25:44;101733.81;;;10.43;82.51
17362;BME280;8798;51.938;4.348;2023-02-17T00:28:11;101725.03;;;10.41;82.41
17362;BME280;8798;51.938;4.348;2023-02-17T00:30:39;101732.13;;;10.42;82.64
17362;BME280;8798;51.938;4.348;2023-02-17T00:33:07;101723.34;;;10.40;82.64
17362;BME280;8798;51.938;4.348;2023-02-17T00:35:38;101713.69;;;10.37;82.83
17362;BME280;8798;51.938;4.348;2023-02-17T00:38:06;101724.44;;;10.37;82.62
17362;BME280;8798;51.938;4.348;2023-02-17T00:40:35;101735.06;;;10.39;82.91
17362;BME280;8798;51.938;4.348;2023-02-17T00:43:04;101740.44;;;10.39;82.98
17362;BME280;8798;51.938;4.348;2023-02-17T00:45:32;101744.94;;;10.38;82.85
17362;BME280;8798;51.938;4.348;2023-02-17T00:48:00;101729.09;;;10.35;82.76
17362;BME280;8798;51.938;4.348;2023-02-17T00:50:27;101720.31;;;10.33;83.16
17362;BME280;8798;51.938;4.348;2023-02-17T00:52:55;101729.34;;;10.32;83.00
17362;BME280;8798;51.938;4.348;2023-02-17T00:55:23;101733.00;;;10.31;82.94
17362;BME280;8798;51.938;4.348;2023-02-17T00:57:53;101728.63;;;10.30;82.60
17362;BME280;8798;51.938;4.348;2023-02-17T01:00:21;101728.63;;;10.30;82.86
17362;BME280;8798;51.938;4.348;2023-02-17T01:02:49;101741.94;;;10.31;82.92
17362;BME280;8798;51.938;4.348;2023-02-17T01:05:16;101747.31;;;10.31;83.01
17362;BME280;8798;51.938;4.348;2023-02-17T01:07:44;101738.38;;;10.31;82.87
17362;BME280;8798;51.938;4.348;2023-02-17T01:10:12;101744.84;;;10.28;83.02
17362;BME280;8798;51.938;4.348;2023-02-17T01:12:40;101741.22;;;10.29;83.00
17362;BME280;8798;51.938;4.348;2023-02-17T01:15:09;101736.06;;;10.26;82.86
17362;BME280;8798;51.938;4.348;2023-02-17T01:17:37;101741.44;;;10.26;83.04
17362;BME280;8798;51.938;4.348;2023-02-17T01:20:06;101738.88;;;10.25;83.31
17362;BME280;8798;51.938;4.348;2023-02-17T01:22:34;101742.41;;;10.25;83.39
17362;BME280;8798;51.938;4.348;2023-02-17T01:25:04;101746.81;;;10.26;83.00
17362;BME280;8798;51.938;4.348;2023-02-17T01:27:32;101750.34;;;10.27;83.20
17362;BME280;8798;51.938;4.348;2023-02-17T01:30:00;101765.50;;;10.28;82.92
17362;BME280;8798;51.938;4.348;2023-02-17T01:32:29;101781.34;;;10.31;83.17
17362;BME280;8798;51.938;4.348;2023-02-17T01:34:57;101785.75;;;10.32;83.01
17362;BME280;8798;51.938;4.348;2023-02-17T01:37:24;101782.22;;;10.31;83.06
17362;BME280;8798;51.938;4.348;2023-02-17T01:39:52;101777.06;;;10.28;83.29
17362;BME280;8798;51.938;4.348;2023-02-17T01:42:20;101768.28;;;10.26;83.23
17362;BME280;8798;51.938;4.348;2023-02-17T01:45:27;101767.41;;;10.26;82.90
17362;BME280;8798;51.938;4.348;2023-02-17T01:47:59;101745.59;;;10.19;82.98
17362;BME280;8798;51.938;4.348;2023-02-17T01:50:32;101742.03;;;10.19;83.05
17362;BME280;8798;51.938;4.348;2023-02-17T01:53:02;101752.66;;;10.20;83.08
17362;BME280;8798;51.938;4.348;2023-02-17T01:55:33;101758.03;;;10.20;83.28
17362;BME280;8798;51.938;4.348;2023-02-17T01:58:03;101769.50;;;10.22;83.09
17362;BME280;8798;51.938;4.348;2023-02-17T02:00:34;101769.50;;;10.22;83.32
17362;BME280;8798;51.938;4.348;2023-02-17T02:03:08;101767.94;;;10.20;83.19
17362;BME280;8798;51.938;4.348;2023-02-17T02:05:38;101752.94;;;10.17;83.30
17362;BME280;8798;51.938;4.348;2023-02-17T02:08:08;101746.81;;;10.15;83.24
17362;BME280;8798;51.938;4.348;2023-02-17T02:10:37;101743.28;;;10.15;83.44
17362;BME280;8798;51.938;4.348;2023-02-17T02:13:06;101755.88;;;10.14;83.15
17362;BME280;8798;51.938;4.348;2023-02-17T02:15:38;101745.97;;;10.15;83.32
17362;BME280;8798;51.938;4.348;2023-02-17T02:18:26;101755.88;;;10.14;83.17
17362;BME280;8798;51.938;4.348;2023-02-17T02:21:44;101756.84;;;10.13;83.34
17362;BME280;8798;51.938;4.348;2023-02-17T02:24:27;101747.09;;;10.12;83.24
17362;BME280;8798;51.938;4.348;2023-02-17T02:30:22;101741.00;;;10.10;82.97
17362;BME280;8798;51.938;4.348;2023-02-17T02:32:58;101761.34;;;10.12;83.01
17362;BME280;8798;51.938;4.348;2023-02-17T02:35:35;101758.78;;;10.11;83.27
17362;BME280;8798;51.938;4.348;2023-02-17T02:38:11;101763.31;;;10.10;83.04
17362;BME280;8798;51.938;4.348;2023-02-17T02:40:43;101770.25;;;10.13;83.29
17362;BME280;8798;51.938;4.348;2023-02-17T02:43:14;101777.34;;;10.14;83.38
17362;BME280;8798;51.938;4.348;2023-02-17T02:45:42;101790.63;;;10.16;83.40
17362;BME280;8798;51.938;4.348;2023-02-17T02:48:11;101800.25;;;10.18;83.34
17362;BME280;8798;51.938;4.348;2023-02-17T02:51:07;101812.47;;;10.22;83.74
17362;BME280;8798;51.938;4.348;2023-02-17T02:53:49;101826.63;;;10.24;83.51
17362;BME280;8798;51.938;4.348;2023-02-17T02:56:29;101830.16;;;10.25;83.23
17362;BME280;8798;51.938;4.348;2023-02-17T02:59:09;101845.16;;;10.27;83.14
17362;BME280;8798;51.938;4.348;2023-02-17T03:01:45;101842.41;;;10.29;83.17
17362;BME280;8798;51.938;4.348;2023-02-17T03:04:21;101855.69;;;10.30;83.59
17362;BME280;8798;51.938;4.348;2023-02-17T03:06:55;101865.31;;;10.33;83.47
17362;BME280;8798;51.938;4.348;2023-02-17T03:09:26;101875.94;;;10.35;83.53
17362;BME280;8798;51.938;4.348;2023-02-17T03:11:55;101884.75;;;10.37;83.14
17362;BME280;8798;51.938;4.348;2023-02-17T03:14:23;101887.19;;;10.40;83.32
17362;BME280;8798;51.938;4.348;2023-02-17T03:16:51;101900.50;;;10.41;83.63
17362;BME280;8798;51.938;4.348;2023-02-17T03:19:22;101918.19;;;10.44;83.61
17362;BME280;8798;51.938;4.348;2023-02-17T03:21:54;101912.69;;;10.45;83.60
17362;BME280;8798;51.938;4.348;2023-02-17T03:24:23;101922.31;;;10.48;83.54
17362;BME280;8798;51.938;4.348;2023-02-17T03:26:51;101938.22;;;10.51;83.68
17362;BME280;8798;51.938;4.348;2023-02-17T03:29:19;101946.84;;;10.54;83.63
17362;BME280;8798;51.938;4.348;2023-02-17T03:31:46;101968.09;;;10.58;83.28
17362;BME280;8798;51.938;4.348;2023-02-17T03:34:14;101968.72;;;10.61;83.92
17362;BME280;8798;51.938;4.348;2023-02-17T03:36:43;101976.78;;;10.61;83.40
17362;BME280;8798;51.938;4.348;2023-02-17T03:39:11;101977.50;;;10.63;83.30
17362;BME280;8798;51.938;4.348;2023-02-17T03:41:39;101981.91;;;10.64;83.67
17362;BME280;8798;51.938;4.348;2023-02-17T03:44:07;101987.28;;;10.64;83.46
17362;BME280;8798;51.938;4.348;2023-02-17T03:46:37;101980.06;;;10.65;83.31
17362;BME280;8798;51.938;4.348;2023-02-17T03:49:05;101984.47;;;10.66;83.45
17362;BME280;8798;51.938;4.348;2023-02-17T03:51:33;101975.53;;;10.65;83.48
17362;BME280;8798;51.938;4.348;2023-02-17T03:54:02;101982.63;;;10.66;83.70
17362;BME280;8798;51.938;4.348;2023-02-17T03:56:30;101979.94;;;10.66;83.91
17362;BME280;8798;51.938;4.348;2023-02-17T03:58:58;101988.75;;;10.68;83.62
17362;BME280;8798;51.938;4.348;2023-02-17T04:01:25;101988.75;;;10.68;84.01
17362;BME280;8798;51.938;4.348;2023-02-17T04:03:53;101990.44;;;10.69;83.55
17362;BME280;8798;51.938;4.348;2023-02-17T04:06:21;101983.38;;;10.68;83.95
17362;BME280;8798;51.938;4.348;2023-02-17T04:08:48;101978.97;;;10.67;83.81
17362;BME280;8798;51.938;4.348;2023-02-17T04:11:18;101985.91;;;10.70;83.50
17362;BME280;8798;51.938;4.348;2023-02-17T04:13:46;101980.69;;;10.68;83.50
17362;BME280;8798;51.938;4.348;2023-02-17T04:16:13;101988.50;;;10.71;83.86
17362;BME280;8798;51.938;4.348;2023-02-17T04:18:41;101983.97;;;10.72;83.55
17362;BME280;8798;51.938;4.348;2023-02-17T04:21:09;101995.56;;;10.72;83.78
17362;BME280;8798;51.938;4.348;2023-02-17T04:23:37;101994.47;;;10.75;83.48
17362;BME280;8798;51.938;4.348;2023-02-17T04:26:07;102005.94;;;10.77;83.88
17362;BME280;8798;51.938;4.348;2023-02-17T04:28:38;102006.78;;;10.77;84.10
17362;BME280;8798;51.938;4.348;2023-02-17T04:31:06;102011.19;;;10.79;83.56
17362;BME280;8798;51.938;4.348;2023-02-17T04:33:34;102016.31;;;10.82;83.88
17362;BME280;8798;51.938;4.348;2023-02-17T04:36:04;102024.97;;;10.85;84.00
17362;BME280;8798;51.938;4.348;2023-02-17T04:38:33;102021.44;;;10.85;83.58
17362;BME280;8798;51.938;4.348;2023-02-17T04:41:01;102028.53;;;10.86;83.73
17362;BME280;8798;51.938;4.348;2023-02-17T04:43:29;102024.88;;;10.87;84.06
17362;BME280;8798;51.938;4.348;2023-02-17T04:45:58;102026.72;;;10.86;83.05
17362;BME280;8798;51.938;4.348;2023-02-17T04:48:26;102022.19;;;10.87;83.47
17362;BME280;8798;51.938;4.348;2023-02-17T04:50:54;102026.56;;;10.88;83.94
17362;BME280;8798;51.938;4.348;2023-02-17T04:53:22;102028.28;;;10.89;83.82
17362;BME280;8798;51.938;4.348;2023-02-17T04:55:51;102022.91;;;10.89;83.93
17362;BME280;8798;51.938;4.348;2023-02-17T04:58:19;102016.69;;;10.88;83.92
17362;BME280;8798;51.938;4.348;2023-02-17T05:00:48;102014.97;;;10.87;83.87
17362;BME280;8798;51.938;4.348;2023-02-17T05:03:18;102014.00;;;10.88;84.08
17362;BME280;8798;51.938;4.348;2023-02-17T05:05:46;102015.69;;;10.89;83.63
17362;BME280;8798;51.938;4.348;2023-02-17T05:08:14;102020.22;;;10.89;83.86
17362;BME280;8798;51.938;4.348;2023-02-17T05:10:41;102012.16;;;10.89;83.62
17362;BME280;8798;51.938;4.348;2023-02-17T05:13:09;102008.47;;;10.90;83.81
17362;BME280;8798;51.938;4.348;2023-02-17T05:15:37;102016.53;;;10.90;83.89
17362;BME280;8798;51.938;4.348;2023-02-17T05:18:05;102017.28;;;10.92;83.99
17362;BME280;8798;51.938;4.348;2023-02-17T05:20:34;102025.22;;;10.93;83.89
17362;BME280;8798;51.938;4.348;2023-02-17T05:23:02;102013.63;;;10.93;84.02
17362;BME280;8798;51.938;4.348;2023-02-17T05:25:30;102010.22;;;10.91;83.74
17362;BME280;8798;51.938;4.348;2023-02-17T05:27:57;102004.94;;;10.89;83.95
17362;BME280;8798;51.938;4.348;2023-02-17T05:30:25;101996.88;;;10.89;83.98
17362;BME280;8798;51.938;4.348;2023-02-17T05:32:53;101993.34;;;10.89;84.14
17362;BME280;8798;51.938;4.348;2023-02-17T05:35:21;102001.25;;;10.90;84.06
17362;BME280;8798;51.938;4.348;2023-02-17T05:37:51;101999.47;;;10.91;83.96
17362;BME280;8798;51.938;4.348;2023-02-17T05:40:19;101997.72;;;10.90;84.09
17362;BME280;8798;51.938;4.348;2023-02-17T05:42:46;101985.28;;;10.89;84.25
17362;BME280;8798;51.938;4.348;2023-02-17T05:45:15;101986.97;;;10.90;84.46
17362;BME280;8798;51.938;4.348;2023-02-17T05:47:42;101996.78;;;10.91;84.23
17362;BME280;8798;51.938;4.348;2023-02-17T05:50:10;101994.81;;;10.93;83.63
17362;BME280;8798;51.938;4.348;2023-02-17T05:52:39;102000.91;;;10.95;84.16
17362;BME280;8798;51.938;4.348;2023-02-17T05:55:08;102013.97;;;11.00;84.19
17362;BME280;8798;51.938;4.348;2023-02-17T05:57:36;102017.50;;;11.00;83.94
17362;BME280;8798;51.938;4.348;2023-02-17T06:00:04;102022.75;;;11.02;84.05
17362;BME280;8798;51.938;4.348;2023-02-17T06:02:32;102020.06;;;11.02;83.76
17362;BME280;8798;51.938;4.348;2023-02-17T06:05:00;102029.72;;;11.04;84.05
17362;BME280;8798;51.938;4.348;2023-02-17T06:07:28;102026.91;;;11.06;84.11
17362;BME280;8798;51.938;4.348;2023-02-17T06:09:56;102044.63;;;11.08;84.23
17362;BME280;8798;51.938;4.348;2023-02-17T06:12:25;102036.44;;;11.10;84.40
17362;BME280;8798;51.938;4.348;2023-02-17T06:14:53;102042.53;;;11.12;84.09
17362;BME280;8798;51.938;4.348;2023-02-17T06:17:21;102048.75;;;11.12;83.89
17362;BME280;8798;51.938;4.348;2023-02-17T06:19:49;102041.56;;;11.13;84.11
17362;BME280;8798;51.938;4.348;2023-02-17T06:22:16;102031.78;;;11.12;84.27
17362;BME280;8798;51.938;4.348;2023-02-17T06:24:44;102039.72;;;11.13;84.24
17362;BME280;8798;51.938;4.348;2023-02-17T06:27:12;102034.34;;;11.13;83.96
17362;BME280;8798;51.938;4.348;2023-02-17T06:29:41;102035.22;;;11.14;84.42
17362;BME280;8798;51.938;4.348;2023-02-17T06:32:10;102036.91;;;11.15;84.13
17362;BME280;8798;51.938;4.348;2023-02-17T06:34:38;102021.03;;;11.12;84.08
17362;BME280;8798;51.938;4.348;2023-02-17T06:37:05;102020.06;;;11.13;83.95
17362;BME280;8798;51.938;4.348;2023-02-17T06:39:33;102011.13;;;11.12;83.70
17362;BME280;8798;51.938;4.348;2023-02-17T06:42:01;102012.84;;;11.13;83.99
17362;BME280;8798;51.938;4.348;2023-02-17T06:44:29;102011.00;;;11.14;84.12
17362;BME280;8798;51.938;4.348;2023-02-17T06:46:58;102019.91;;;11.14;83.98
17362;BME280;8798;51.938;4.348;2023-02-17T06:49:26;102011.00;;;11.14;84.53
17362;BME280;8798;51.938;4.348;2023-02-17T06:51:54;102010.00;;;11.15;83.95
17362;BME280;8798;51.938;4.348;2023-02-17T06:54:21;102007.47;;;11.13;84.05
17362;BME280;8798;51.938;4.348;2023-02-17T06:56:49;101985.22;;;11.11;83.93
17362;BME280;8798;51.938;4.348;2023-02-17T06:59:17;101979.09;;;11.09;84.42
17362;BME280;8798;51.938;4.348;2023-02-17T07:01:45;101972.88;;;11.09;84.37
17362;BME280;8798;51.938;4.348;2023-02-17T07:04:16;101965.81;;;11.08;83.99
17362;BME280;8798;51.938;4.348;2023-02-17T07:06:44;101968.63;;;11.06;84.86
17362;BME280;8798;51.938;4.348;2023-02-17T07:09:12;101955.16;;;11.06;84.58
17362;BME280;8798;51.938;4.348;2023-02-17T07:11:40;101948.06;;;11.05;84.31
17362;BME280;8798;51.938;4.348;2023-02-17T07:14:10;101950.75;;;11.05;84.27
17362;BME280;8798;51.938;4.348;2023-02-17T07:16:38;101933.03;;;11.03;84.56
17362;BME280;8798;51.938;4.348;2023-02-17T07:19:06;101932.19;;;11.02;83.74
17362;BME280;8798;51.938;4.348;2023-02-17T07:21:35;101903.88;;;10.98;84.01
17362;BME280;8798;51.938;4.348;2023-02-17T07:24:03;101916.44;;;10.97;83.99
17362;BME280;8798;51.938;4.348;2023-02-17T07:26:34;101909.38;;;10.96;84.24
17362;BME280;8798;51.938;4.348;2023-02-17T07:29:02;101900.47;;;10.96;84.09
17362;BME280;8798;51.938;4.348;2023-02-17T07:31:31;101895.19;;;10.94;84.17
17362;BME280;8798;51.938;4.348;2023-02-17T07:34:00;101888.13;;;10.93;84.17
17362;BME280;8798;51.938;4.348;2023-02-17T07:36:31;101876.66;;;10.91;84.67
17362;BME280;8798;51.938;4.348;2023-02-17T07:39:08;101876.66;;;10.91;84.39
17362;BME280;8798;51.938;4.348;2023-02-17T07:41:37;101874.06;;;10.90;84.03
17362;BME280;8798;51.938;4.348;2023-02-17T07:44:05;101866.16;;;10.88;84.27
17362;BME280;8798;51.938;4.348;2023-02-17T07:46:32;101880.19;;;10.92;84.17
17362;BME280;8798;51.938;4.348;2023-02-17T07:49:00;101887.13;;;10.94;84.07
17362;BME280;8798;51.938;4.348;2023-02-17T07:51:28;101895.94;;;10.96;84.72
17362;BME280;8798;51.938;4.348;2023-02-17T07:53:56;101899.47;;;10.97;84.20
17362;BME280;8798;51.938;4.348;2023-02-17T07:56:26;101896.78;;;10.97;84.56
17362;BME280;8798;51.938;4.348;2023-02-17T07:58:55;101904.72;;;10.98;84.75
17362;BME280;8798;51.938;4.348;2023-02-17T08:01:24;101909.97;;;11.00;84.47
17362;BME280;8798;51.938;4.348;2023-02-17T08:03:52;101918.03;;;11.00;84.47
17362;BME280;8798;51.938;4.348;2023-02-17T08:06:23;101917.06;;;11.01;84.69
17362;BME280;8798;51.938;4.348;2023-02-17T08:08:52;101910.69;;;11.02;84.68
17362;BME280;8798;51.938;4.348;2023-02-17T08:11:35;101932.81;;;11.06;84.47
17362;BME280;8798;51.938;4.348;2023-02-17T08:14:22;101929.97;;;11.07;84.50
17362;BME280;8798;51.938;4.348;2023-02-17T08:16:51;101938.78;;;11.09;84.18
17362;BME280;8798;51.938;4.348;2023-02-17T08:19:20;101943.31;;;11.09;84.60
17362;BME280;8798;51.938;4.348;2023-02-17T08:21:48;101940.63;;;11.09;84.70
17362;BME280;8798;51.938;4.348;2023-02-17T08:24:16;101948.56;;;11.10;84.35
17362;BME280;8798;51.938;4.348;2023-02-17T08:26:46;101950.16;;;11.13;84.43
17362;BME280;8798;51.938;4.348;2023-02-17T08:29:14;101954.53;;;11.14;84.37
17362;BME280;8798;51.938;4.348;2023-02-17T08:31:42;101965.16;;;11.15;84.76
17362;BME280;8798;51.938;4.348;2023-02-17T08:34:12;101961.50;;;11.16;84.47
17362;BME280;8798;51.938;4.348;2023-02-17T08:36:40;101975.53;;;11.20;84.29
17362;BME280;8798;51.938;4.348;2023-02-17T08:39:10;101991.41;;;11.23;84.73
17362;BME280;8798;51.938;4.348;2023-02-17T08:41:39;102001.19;;;11.24;84.16
17362;BME280;8798;51.938;4.348;2023-02-17T08:44:10;101990.44;;;11.24;84.67
17362;BME280;8798;51.938;4.348;2023-02-17T08:46:38;101990.56;;;11.23;84.86
17362;BME280;8798;51.938;4.348;2023-02-17T08:49:06;101989.59;;;11.24;84.71
17362;BME280;8798;51.938;4.348;2023-02-17T08:51:35;101974.44;;;11.23;84.31
17362;BME280;8798;51.938;4.348;2023-02-17T08:54:04;101985.91;;;11.25;84.55
17362;BME280;8798;51.938;4.348;2023-02-17T08:56:33;101984.09;;;11.25;84.14
17362;BME280;8798;51.938;4.348;2023-02-17T08:59:01;101993.84;;;11.26;84.14
17362;BME280;8798;51.938;4.348;2023-02-17T09:01:30;102001.81;;;11.28;84.78
17362;BME280;8798;51.938;4.348;2023-02-17T09:03:59;101984.94;;;11.26;84.17
17362;BME280;8798;51.938;4.348;2023-02-17T09:06:32;101983.09;;;11.26;84.76
17362;BME280;8798;51.938;4.348;2023-02-17T09:09:00;101982.97;;;11.28;84.12
17362;BME280;8798;51.938;4.348;2023-02-17T09:11:28;101999.81;;;11.30;84.84
17362;BME280;8798;51.938;4.348;2023-02-17T09:13:56;102008.50;;;11.33;84.47
17362;BME280;8798;51.938;4.348;2023-02-17T09:16:24;102015.56;;;11.34;84.63
17362;BME280;8798;51.938;4.348;2023-02-17T09:18:54;102024.38;;;11.36;84.16
17362;BME280;8798;51.938;4.348;2023-02-17T09:21:22;102018.88;;;11.38;84.39
17362;BME280;8798;51.938;4.348;2023-02-17T09:23:50;102031.34;;;11.39;84.27
17362;BME280;8798;51.938;4.348;2023-02-17T09:26:19;102046.09;;;11.45;84.63
17362;BME280;8798;51.938;4.348;2023-02-17T09:28:48;102065.41;;;11.50;84.57
17362;BME280;8798;51.938;4.348;2023-02-17T09:31:18;102071.66;;;11.50;84.57
17362;BME280;8798;51.938;4.348;2023-02-17T09:33:47;102073.38;;;11.51;84.44
17362;BME280;8798;51.938;4.348;2023-02-17T09:36:19;102068.00;;;11.51;84.09
17362;BME280;8798;51.938;4.348;2023-02-17T09:38:47;102070.56;;;11.53;84.54
17362;BME280;8798;51.938;4.348;2023-02-17T09:41:17;102080.22;;;11.55;84.01
17362;BME280;8798;51.938;4.348;2023-02-17T09:43:46;102097.78;;;11.59;84.73
17362;BME280;8798;51.938;4.348;2023-02-17T09:46:19;102126.78;;;11.67;84.05
17362;BME280;8798;51.938;4.348;2023-02-17T09:48:49;102137.16;;;11.72;84.23
17362;BME280;8798;51.938;4.348;2023-02-17T09:51:22;102146.81;;;11.74;84.48
17362;BME280;8798;51.938;4.348;2023-02-17T09:54:01;102156.34;;;11.78;84.13
17362;BME280;8798;51.938;4.348;2023-02-17T09:56:34;102165.28;;;11.79;84.04
17362;BME280;8798;51.938;4.348;2023-02-17T09:59:10;102178.25;;;11.85;84.35
17362;BME280;8798;51.938;4.348;2023-02-17T10:01:39;102202.13;;;11.90;84.63
17362;BME280;8798;51.938;4.348;2023-02-17T10:04:11;102202.00;;;11.91;84.33
17362;BME280;8798;51.938;4.348;2023-02-17T10:06:45;102193.91;;;11.91;83.85
17362;BME280;8798;51.938;4.348;2023-02-17T10:09:18;102186.84;;;11.90;83.89
17362;BME280;8798;51.938;4.348;2023-02-17T10:11:52;102181.44;;;11.90;84.32
17362;BME280;8798;51.938;4.348;2023-02-17T10:14:27;102192.94;;;11.92;84.38
17362;BME280;8798;51.938;4.348;2023-02-17T10:17:02;102185.72;;;11.93;83.86
17362;BME280;8798;51.938;4.348;2023-02-17T10:19:35;102205.16;;;11.96;84.13
17362;BME280;8798;51.938;4.348;2023-02-17T10:22:11;102196.13;;;11.97;84.03
17362;BME280;8798;51.938;4.348;2023-02-17T10:24:40;102205.78;;;12.00;83.86
17362;BME280;8798;51.938;4.348;2023-02-17T10:27:26;102213.72;;;12.01;84.42
17362;BME280;8798;51.938;4.348;2023-02-17T10:30:23;102212.75;;;12.02;84.42
17362;BME280;8798;51.938;4.348;2023-02-17T10:32:59;102201.97;;;12.02;83.72
17362;BME280;8798;51.938;4.348;2023-02-17T10:35:39;102208.94;;;12.05;84.12
17362;BME280;8798;51.938;4.348;2023-02-17T10:38:15;102215.91;;;12.08;84.34
17362;BME280;8798;51.938;4.348;2023-02-17T10:40:46;102227.41;;;12.10;84.08
17362;BME280;8798;51.938;4.348;2023-02-17T10:43:20;102207.94;;;12.06;84.35
17362;BME280;8798;51.938;4.348;2023-02-17T10:45:49;102200.84;;;12.05;83.69
17362;BME280;8798;51.938;4.348;2023-02-17T10:48:21;102174.31;;;12.00;83.92
17362;BME280;8798;51.938;4.348;2023-02-17T10:50:50;102153.28;;;11.94;83.77
17362;BME280;8798;51.938;4.348;2023-02-17T10:53:24;102132.72;;;11.93;83.75
17362;BME280;8798;51.938;4.348;2023-02-17T10:55:57;102121.34;;;11.90;84.00
17362;BME280;8798;51.938;4.348;2023-02-17T10:58:31;102108.13;;;11.87;83.65
17362;BME280;8798;51.938;4.348;2023-02-17T11:01:02;102098.31;;;11.86;83.38
17362;BME280;8798;51.938;4.348;2023-02-17T11:03:32;102098.31;;;11.86;83.47
17362;BME280;8798;51.938;4.348;2023-02-17T11:06:04;102101.03;;;11.86;84.00
17362;BME280;8798;51.938;4.348;2023-02-17T11:08:38;102092.09;;;11.85;83.31
17362;BME280;8798;51.938;4.348;2023-02-17T11:11:15;102092.09;;;11.85;83.47
17362;BME280;8798;51.938;4.348;2023-02-17T11:13:55;102078.75;;;11.83;83.97
17362;BME280;8798;51.938;4.348;2023-02-17T11:16:25;102076.19;;;11.82;83.44
17362;BME280;8798;51.938;4.348;2023-02-17T11:18:54;102067.25;;;11.81;83.21
17362;BME280;8798;51.938;4.348;2023-02-17T11:21:22;102067.25;;;11.81;83.89
17362;BME280;8798;51.938;4.348;2023-02-17T11:23:57;102061.00;;;11.81;83.96
17362;BME280;8798;51.938;4.348;2023-02-17T11:26:26;102073.38;;;11.83;83.29
17362;BME280;8798;51.938;4.348;2023-02-17T11:29:06;102078.63;;;11.85;83.33
17362;BME280;8798;51.938;4.348;2023-02-17T11:31:34;102088.16;;;11.89;83.08
17362;BME280;8798;51.938;4.348;2023-02-17T11:34:13;102099.66;;;11.91;83.32
17362;BME280;8798;51.938;4.348;2023-02-17T11:36:43;102115.59;;;11.94;83.57
17362;BME280;8798;51.938;4.348;2023-02-17T11:39:20;102107.63;;;11.93;83.56
17362;BME280;8798;51.938;4.348;2023-02-17T11:41:48;102118.03;;;11.97;83.63
17362;BME280;8798;51.938;4.348;2023-02-17T11:44:24;102133.91;;;12.00;82.87
17362;BME280;8798;51.938;4.348;2023-02-17T11:47:01;102146.16;;;12.04;83.75
17362;BME280;8798;51.938;4.348;2023-02-17T11:49:43;102148.84;;;12.04;83.45
17362;BME280;8798;51.938;4.348;2023-02-17T11:52:28;102147.00;;;12.05;83.52
17362;BME280;8798;51.938;4.348;2023-02-17T11:55:10;102151.38;;;12.06;82.87
17362;BME280;8798;51.938;4.348;2023-02-17T11:57:41;102158.34;;;12.09;83.58
17362;BME280;8798;51.938;4.348;2023-02-17T12:00:15;102194.28;;;12.19;83.45
17362;BME280;8798;51.938;4.348;2023-02-17T12:02:56;102234.78;;;12.29;83.29
17362;BME280;8798;51.938;4.348;2023-02-17T12:05:39;102263.78;;;12.36;82.93
17362;BME280;8798;51.938;4.348;2023-02-17T12:08:20;102298.06;;;12.45;83.44
17362;BME280;8798;51.938;4.348;2023-02-17T12:11:00;102328.06;;;12.52;82.67
17362;BME280;8798;51.938;4.348;2023-02-17T12:13:40;102349.00;;;12.60;82.59
17362;BME280;8798;51.938;4.348;2023-02-17T12:16:34;102359.41;;;12.64;83.33
17362;BME280;8798;51.938;4.348;2023-02-17T12:19:22;102362.84;;;12.66;82.59
17362;BME280;8798;51.938;4.348;2023-02-17T12:22:01;102369.81;;;12.69;82.50
17362;BME280;8798;51.938;4.348;2023-02-17T12:24:43;102387.31;;;12.75;83.04
17362;BME280;8798;51.938;4.348;2023-02-17T12:27:24;102377.50;;;12.74;82.57
17362;BME280;8798;51.938;4.348;2023-02-17T12:30:05;102368.53;;;12.73;82.57
17362;BME280;8798;51.938;4.348;2023-02-17T12:32:52;102349.09;;;12.69;82.93
17362;BME280;8798;51.938;4.348;2023-02-17T12:35:25;102311.97;;;12.62;83.14
17362;BME280;8798;51.938;4.348;2023-02-17T12:38:00;102300.47;;;12.60;82.11
17362;BME280;8798;51.938;4.348;2023-02-17T12:40:33;102288.09;;;12.57;82.66
17362;BME280;8798;51.938;4.348;2023-02-17T12:43:12;102266.91;;;12.53;81.95
17362;BME280;8798;51.938;4.348;2023-02-17T12:45:45;102229.84;;;12.45;82.58
17362;BME280;8798;51.938;4.348;2023-02-17T12:48:22;102198.88;;;12.39;82.03
17362;BME280;8798;51.938;4.348;2023-02-17T12:50:56;102161.81;;;12.32;82.36
17362;BME280;8798;51.938;4.348;2023-02-17T12:53:38;102148.56;;;12.29;82.35
17362;BME280;8798;51.938;4.348;2023-02-17T12:59:13;102114.22;;;12.21;82.40
17362;BME280;8798;51.938;4.348;2023-02-17T13:01:49;102097.47;;;12.17;82.34
17362;BME280;8798;51.938;4.348;2023-02-17T13:04:18;102091.34;;;12.15;82.41
17362;BME280;8798;51.938;4.348;2023-02-17T13:06:52;102094.91;;;12.16;81.92
17362;BME280;8798;51.938;4.348;2023-02-17T13:09:29;102095.75;;;12.16;81.48
17362;BME280;8798;51.938;4.348;2023-02-17T13:12:17;102084.28;;;12.14;82.02
17362;BME280;8798;51.938;4.348;2023-02-17T13:14:59;102080.69;;;12.14;81.73
17362;BME280;8798;51.938;4.348;2023-02-17T13:17:29;102101.00;;;12.18;82.18
17362;BME280;8798;51.938;4.348;2023-02-17T13:20:36;102116.06;;;12.20;81.91
17362;BME280;8798;51.938;4.348;2023-02-17T13:23:07;102108.09;;;12.19;81.95
17362;BME280;8798;51.938;4.348;2023-02-17T13:25:37;102102.59;;;12.20;81.38
17362;BME280;8798;51.938;4.348;2023-02-17T13:28:32;102139.78;;;12.26;81.66